Flight Track Log - Related Links

Times and Time Zones

All times are in EDT time to prevent confusion due to time zone crossing. See the AWI3778 flight status page for this flight to view local times or setup timezone preferences in your user account.


Time Position Orientation Groundspeed Altitude Reporting Facility
EDT Latitude Longitude Course Direction KTS MPH feet Rate Location/Type
Fri 11:40:40 AM 39.8667 -75.2833 37° Northeast 183 211 1,000  Level Philadelphia TRACON
Fri 11:41:41 AM 39.8167 -75.3167 207° Southwest 225 259 3,000 2,167 Climbing Philadelphia TRACON
Fri 11:42:28 AM 39.7833 -75.3667 229° Southwest 237 273 4,900 1,912 Climbing Philadelphia TRACON
Fri 11:43:00 AM 39.8167 -74.8908 90° East  Level FlightAware Approximate
Fri 11:43:34 AM 39.7000 -75.3500 171° South 289 333 6,600  Level Philadelphia TRACON
Fri 11:44:00 AM 39.7981 -74.7739 105° East  Level FlightAware Approximate
Fri 11:44:35 AM 39.7000 -75.2667 90° East 255 293 8,900  Level Philadelphia TRACON
Fri 11:45:00 AM 39.8099 -74.6735 37° Northeast  Level FlightAware Approximate
Fri 11:45:41 AM 39.7167 -75.1667 78° East 274 315 10,600  Level Philadelphia TRACON
Fri 11:46:00 AM 39.8830 -74.6004 37° Northeast  Level FlightAware Approximate
Fri 11:47:43 AM 39.7564 -74.9375 77° East 328 377 12,000  Level New York Center
Fri 11:48:43 AM 39.7750 -74.8250 78° East 349 402 13,200 1,361 Climbing New York Center
Fri 11:49:42 AM 39.8019 -74.7022 74° East 354 407 14,700 1,500 Climbing New York Center
Fri 11:50:43 AM 39.8817 -74.6283 35° Northeast 324 373 16,200 1,966 Climbing New York Center
Fri 11:51:41 AM 39.9569 -74.5567 36° Northeast 324 373 18,600 1,373 Climbing New York Center
Fri 11:52:41 AM 40.0281 -74.4875 37° Northeast 341 392 18,900 645 Climbing New York Center
Fri 11:53:42 AM 40.1183 -74.3972 37° Northeast 353 406 19,900 843 Climbing New York Center
Fri 11:54:42 AM 40.2022 -74.3147 37° Northeast 364 419 20,600 843 Climbing New York Center
Fri 11:55:43 AM 40.2903 -74.2267 37° Northeast 378 435 21,600 1,190 Climbing New York Center
Fri 11:56:43 AM 40.3758 -74.1439 36° Northeast 378 435 23,000 1,271 Climbing New York Center
Fri 11:57:41 AM 40.4597 -74.0578 38° Northeast 378 435 24,100 1,008 Climbing New York Center
Fri 11:58:42 AM 40.5353 -73.9606 44° Northeast 378 435 25,000 325 Climbing New York Center
Fri 12:00:27 PM 40.7219 -73.8722 20° North 400 460 25,000  Level Boston Center
Fri 12:01:27 PM 40.8269 -73.8197 21° North 394 453 25,000  Level Boston Center
Fri 12:02:27 PM 40.9294 -73.7697 20° North 389 448 25,000  Level Boston Center
Fri 12:03:27 PM 41.0322 -73.7142 22° Northeast 389 448 25,000  Level Boston Center
Fri 12:04:27 PM 41.1350 -73.6608 21° North 389 448 25,000  Level Boston Center
Fri 12:05:27 PM 41.2397 -73.6106 20° North 389 448 25,000  Level Boston Center
Fri 12:06:27 PM 41.3425 -73.5572 21° North 389 448 25,000  Level Boston Center
Fri 12:07:27 PM 41.4431 -73.5061 21° North 389 448 25,000  Level Boston Center
Fri 12:08:27 PM 41.5539 -73.4525 20° North 389 448 25,000  Level Boston Center
Fri 12:09:27 PM 41.6625 -73.4406 North 384 442 25,000  Level Boston Center
Fri 12:10:27 PM 41.7728 -73.4311 North 384 442 25,000  Level Boston Center
Fri 12:11:27 PM 41.8814 -73.4189 North 389 448 25,000  Level Boston Center
Fri 12:12:27 PM 41.9897 -73.4092 North 389 448 25,000  Level Boston Center
Fri 12:13:27 PM 42.0922 -73.3942 North 398 458 25,000  Level Boston Center
Fri 12:14:27 PM 42.2028 -73.3817 North 403 464 25,000  Level Boston Center
Fri 12:15:27 PM 42.3133 -73.3694 North 403 464 25,000  Level Boston Center
Fri 12:16:39 PM 42.4300 -73.3683 360° North 392 451 25,000  Level Boston Center
Fri 12:17:51 PM 42.5531 -73.3419 North 391 450 25,000  Level Boston Center
Fri 12:18:51 PM 42.6928 -73.3411 360° North 385 443 25,000  Level Boston Center
Fri 12:19:51 PM 42.7886 -73.3314 North 385 443 25,000  Level Boston Center
Fri 12:20:51 PM 42.8972 -73.3214 North 385 443 25,000 -200 Level Boston Center
Fri 12:21:51 PM 43.0056 -73.3089 North 385 443 24,600 -800 Descending Boston Center
Fri 12:22:51 PM 43.1119 -73.2989 North 385 443 23,400 -800 Descending Boston Center
Fri 12:23:51 PM 43.2183 -73.2892 North 385 443 23,000 -200 Descending Boston Center
Fri 12:24:51 PM 43.3144 -73.2761 North 367 422 23,000 -364 Level Boston Center
Fri 12:26:03 PM 43.4208 -73.2633 North 362 417 22,200 -1,364 Descending Boston Center
Fri 12:27:03 PM 43.5375 -73.2506 North 346 398 20,000 -2,100 Descending Boston Center
Fri 12:28:03 PM 43.6333 -73.2433 North 346 398 18,000 -1,850 Descending Boston Center
Fri 12:29:03 PM 43.7147 -73.2358 North 338 389 16,300 -1,750 Descending Boston Center
Fri 12:30:03 PM 43.8044 -73.2256 North 322 371 14,500 -1,900 Descending Boston Center
Fri 12:31:03 PM 43.8900 -73.2178 North 317 365 12,500 -2,050 Descending Boston Center
Fri 12:32:03 PM 43.9731 -73.2275 355° North 299 344 10,400 -2,100 Descending Boston Center
Fri 12:33:03 PM 44.0419 -73.2431 351° North 274 315 8,300 -2,150 Descending Boston Center
Fri 12:34:03 PM 44.1064 -73.2556 352° North 244 281 6,100 -1,950 Descending Boston Center
Fri 12:35:03 PM 44.1792 -73.2681 353° North 236 272 4,400 -1,500 Descending Boston Center
Fri 12:36:03 PM 44.2461 -73.2428 15° North 237 273 3,100 -636 Descending Boston Center
Fri 12:37:15 PM 44.3044 -73.2175 17° North 231 266 3,000 -83 Descending Boston Center

Login

Don't have an account? Register now (free) for customized features, flight alerts, and more!